This is the latest recevied weather packets stored in our database for station/object W1HVD. If no packets are shown the sender has not sent any weather packets the latest 1 day(s).
| Time | Temp. | Humidity | Pressure | Rain* | Wind** | Luminosity | Snow |
|---|---|---|---|---|---|---|---|
| 1778007968 | 23.89° C | 49% | 1009 hPa | 0 mm | 0.45 m/s, 279° | 573 W/m² | - |
| 1778007663 | 23.89° C | 48% | 1009 hPa | 0 mm | 2.68 m/s, 255° | 584 W/m² | - |
| 1778007360 | 23.89° C | 48% | 1009.2 hPa | 0 mm | 0.89 m/s, 215° | 591 W/m² | - |
| 1778007057 | 24.44° C | 49% | 1009.2 hPa | 0 mm | 0.89 m/s, 139° | 600 W/m² | - |
| 1778006754 | 25° C | 47% | 1009.3 hPa | 0 mm | 1.34 m/s, 142° | 612 W/m² | - |
| 1778006450 | 23.89° C | 48% | 1009.1 hPa | 0 mm | 0.89 m/s, 228° | 621 W/m² | - |
| 1778006147 | 23.89° C | 48% | 1009.2 hPa | 0 mm | 1.34 m/s, 254° | 629 W/m² | - |
| 1778005845 | 23.89° C | 47% | 1009.5 hPa | 0 mm | 2.68 m/s, 113° | 637 W/m² | - |
| 1778005541 | 24.44° C | 48% | 1009.2 hPa | 0 mm | 0.89 m/s, 247° | 645 W/m² | - |
| 1778005238 | 23.89° C | 48% | 1009.2 hPa | 0 mm | 0.89 m/s, 211° | 653 W/m² | - |
| 1778004934 | 24.44° C | 48% | 1009.5 hPa | 0 mm | 2.24 m/s, 248° | 661 W/m² | - |
| 1778004632 | 23.33° C | 48% | 1009.6 hPa | 0 mm | 0.89 m/s, 251° | 668 W/m² | - |
| 1778004327 | 23.33° C | 49% | 1009.7 hPa | 0 mm | 0.89 m/s, 238° | 675 W/m² | - |
| 1778004026 | 22.22° C | 51% | 1009.7 hPa | 0 mm | 0.89 m/s, 257° | 681 W/m² | - |
| 1778003726 | 22.22° C | 50% | 1009.9 hPa | 0 mm | 1.79 m/s, 177° | 689 W/m² | - |
| 1778003423 | 22.22° C | 51% | 1010.1 hPa | 0 mm | 3.58 m/s, 198° | 696 W/m² | - |
| 1778003120 | 22.78° C | 50% | 1010.3 hPa | 0 mm | 2.68 m/s, 193° | 701 W/m² | - |
| 1778002816 | 23.33° C | 51% | 1010.2 hPa | 0 mm | 2.68 m/s, 226° | 705 W/m² | - |
| 1778002513 | 22.78° C | 51% | 1010.3 hPa | 0 mm | 0.89 m/s, 58° | 709 W/m² | - |
| 1778002210 | 22.22° C | 52% | 1010.2 hPa | 0 mm | 0.45 m/s, 92° | 713 W/m² | - |
| 1778001908 | 22.22° C | 51% | 1010.4 hPa | 0 mm | 3.58 m/s, 188° | 720 W/m² | - |
| 1778001609 | 22.78° C | 50% | 1010.3 hPa | 0 mm | 2.68 m/s, 238° | 724 W/m² | - |
| 1778001304 | 22.22° C | 52% | 1010.4 hPa | 0 mm | 0.89 m/s, 119° | 726 W/m² | - |
| 1778001001 | 22.22° C | 51% | 1010.2 hPa | 0 mm | 1.79 m/s, 295° | 729 W/m² | - |
| 1778000698 | 22.22° C | 53% | 1010.2 hPa | 0 mm | 1.34 m/s, 223° | 733 W/m² | - |
* Rain latest hour (hover to see other rain measurements)
** Current wind speed in m/s (hover to see current wind gust speed)